sensor_id;sensor_type;location;lat;lon;timestamp;temperature;humidity
52181;DHT22;38158;53.338;6.514;2022-09-01T00:01:26;14.30;99.90
52181;DHT22;38158;53.338;6.514;2022-09-01T00:03:54;14.30;99.90
52181;DHT22;38158;53.338;6.514;2022-09-01T00:06:22;14.30;99.90
52181;DHT22;38158;53.338;6.514;2022-09-01T00:08:54;14.30;99.90
52181;DHT22;38158;53.338;6.514;2022-09-01T00:11:21;14.20;99.90
52181;DHT22;38158;53.338;6.514;2022-09-01T00:13:49;14.20;99.90
52181;DHT22;38158;53.338;6.514;2022-09-01T00:16:15;14.20;99.90
52181;DHT22;38158;53.338;6.514;2022-09-01T00:18:43;14.20;99.90
52181;DHT22;38158;53.338;6.514;2022-09-01T00:21:12;14.20;99.90
52181;DHT22;38158;53.338;6.514;2022-09-01T00:23:38;14.20;99.90
52181;DHT22;38158;53.338;6.514;2022-09-01T00:26:04;14.30;99.90
52181;DHT22;38158;53.338;6.514;2022-09-01T00:28:34;14.30;99.90
52181;DHT22;38158;53.338;6.514;2022-09-01T00:31:00;14.30;99.90
52181;DHT22;38158;53.338;6.514;2022-09-01T00:33:26;14.30;99.90
52181;DHT22;38158;53.338;6.514;2022-09-01T00:35:52;14.40;99.90
52181;DHT22;38158;53.338;6.514;2022-09-01T00:38:18;14.40;99.90
52181;DHT22;38158;53.338;6.514;2022-09-01T00:40:44;14.40;99.90
52181;DHT22;38158;53.338;6.514;2022-09-01T00:43:16;14.50;99.90
52181;DHT22;38158;53.338;6.514;2022-09-01T00:45:44;14.50;99.90
52181;DHT22;38158;53.338;6.514;2022-09-01T00:48:09;14.50;99.90
52181;DHT22;38158;53.338;6.514;2022-09-01T00:50:36;14.50;99.90
52181;DHT22;38158;53.338;6.514;2022-09-01T00:53:03;14.50;99.90
52181;DHT22;38158;53.338;6.514;2022-09-01T00:55:32;14.50;99.90
52181;DHT22;38158;53.338;6.514;2022-09-01T00:58:00;14.60;99.90
52181;DHT22;38158;53.338;6.514;2022-09-01T01:00:29;14.50;99.90
52181;DHT22;38158;53.338;6.514;2022-09-01T01:02:56;14.50;99.90
52181;DHT22;38158;53.338;6.514;2022-09-01T01:05:23;14.50;99.90
52181;DHT22;38158;53.338;6.514;2022-09-01T01:07:53;14.60;99.90
52181;DHT22;38158;53.338;6.514;2022-09-01T01:10:20;14.60;99.90
52181;DHT22;38158;53.338;6.514;2022-09-01T01:12:48;14.60;99.90
52181;DHT22;38158;53.338;6.514;2022-09-01T01:15:17;14.60;99.90
52181;DHT22;38158;53.338;6.514;2022-09-01T01:17:43;14.50;99.90
52181;DHT22;38158;53.338;6.514;2022-09-01T01:20:11;14.50;99.90
52181;DHT22;38158;53.338;6.514;2022-09-01T01:23:10;14.50;99.90
52181;DHT22;38158;53.338;6.514;2022-09-01T01:25:50;14.50;99.90
52181;DHT22;38158;53.338;6.514;2022-09-01T01:28:27;14.50;99.90
52181;DHT22;38158;53.338;6.514;2022-09-01T01:31:08;14.50;99.90
52181;DHT22;38158;53.338;6.514;2022-09-01T01:33:41;14.50;99.90
52181;DHT22;38158;53.338;6.514;2022-09-01T01:36:11;14.50;99.90
52181;DHT22;38158;53.338;6.514;2022-09-01T01:38:43;14.50;99.90
52181;DHT22;38158;53.338;6.514;2022-09-01T01:41:10;14.60;99.90
52181;DHT22;38158;53.338;6.514;2022-09-01T01:43:36;14.60;99.90
52181;DHT22;38158;53.338;6.514;2022-09-01T01:46:04;14.60;99.90
52181;DHT22;38158;53.338;6.514;2022-09-01T01:48:30;14.70;99.90
52181;DHT22;38158;53.338;6.514;2022-09-01T01:51:00;14.70;99.90
52181;DHT22;38158;53.338;6.514;2022-09-01T01:53:27;14.70;99.90
52181;DHT22;38158;53.338;6.514;2022-09-01T01:55:53;14.80;99.90
52181;DHT22;38158;53.338;6.514;2022-09-01T01:58:21;14.90;99.90
52181;DHT22;38158;53.338;6.514;2022-09-01T02:00:48;14.80;99.90
52181;DHT22;38158;53.338;6.514;2022-09-01T02:03:18;14.80;99.90
52181;DHT22;38158;53.338;6.514;2022-09-01T02:05:46;14.80;99.90
52181;DHT22;38158;53.338;6.514;2022-09-01T02:08:13;14.80;99.90
52181;DHT22;38158;53.338;6.514;2022-09-01T02:10:45;14.80;99.90
52181;DHT22;38158;53.338;6.514;2022-09-01T02:13:13;14.80;99.90
52181;DHT22;38158;53.338;6.514;2022-09-01T02:15:47;14.80;99.90
52181;DHT22;38158;53.338;6.514;2022-09-01T02:18:20;14.80;99.90
52181;DHT22;38158;53.338;6.514;2022-09-01T02:20:48;14.80;99.90
52181;DHT22;38158;53.338;6.514;2022-09-01T02:23:15;14.80;99.90
52181;DHT22;38158;53.338;6.514;2022-09-01T02:25:45;14.80;99.90
52181;DHT22;38158;53.338;6.514;2022-09-01T02:28:12;14.80;99.90
52181;DHT22;38158;53.338;6.514;2022-09-01T02:30:46;14.80;99.90
52181;DHT22;38158;53.338;6.514;2022-09-01T02:33:14;14.80;99.90
52181;DHT22;38158;53.338;6.514;2022-09-01T02:35:56;14.80;99.90
52181;DHT22;38158;53.338;6.514;2022-09-01T02:38:23;14.70;99.90
52181;DHT22;38158;53.338;6.514;2022-09-01T02:40:51;14.80;99.90
52181;DHT22;38158;53.338;6.514;2022-09-01T02:43:20;14.80;99.90
52181;DHT22;38158;53.338;6.514;2022-09-01T02:45:51;14.80;99.90
52181;DHT22;38158;53.338;6.514;2022-09-01T02:48:31;14.80;99.90
52181;DHT22;38158;53.338;6.514;2022-09-01T02:51:01;14.80;99.90
52181;DHT22;38158;53.338;6.514;2022-09-01T02:53:28;14.70;99.90
52181;DHT22;38158;53.338;6.514;2022-09-01T02:55:55;14.70;99.90
52181;DHT22;38158;53.338;6.514;2022-09-01T02:58:28;14.70;99.90
52181;DHT22;38158;53.338;6.514;2022-09-01T03:00:57;14.70;99.90
52181;DHT22;38158;53.338;6.514;2022-09-01T03:03:23;14.70;99.90
52181;DHT22;38158;53.338;6.514;2022-09-01T03:05:53;14.70;99.90
52181;DHT22;38158;53.338;6.514;2022-09-01T03:08:22;14.60;99.90
52181;DHT22;38158;53.338;6.514;2022-09-01T03:10:49;14.70;99.90
52181;DHT22;38158;53.338;6.514;2022-09-01T03:13:22;14.70;99.90
52181;DHT22;38158;53.338;6.514;2022-09-01T03:15:49;14.60;99.90
52181;DHT22;38158;53.338;6.514;2022-09-01T03:18:15;14.60;99.90
52181;DHT22;38158;53.338;6.514;2022-09-01T03:20:44;14.60;99.90
52181;DHT22;38158;53.338;6.514;2022-09-01T03:23:13;14.60;99.90
52181;DHT22;38158;53.338;6.514;2022-09-01T03:25:44;14.50;99.90
52181;DHT22;38158;53.338;6.514;2022-09-01T03:28:14;14.50;99.90
52181;DHT22;38158;53.338;6.514;2022-09-01T03:30:48;14.40;99.90
52181;DHT22;38158;53.338;6.514;2022-09-01T03:33:16;14.40;99.90
52181;DHT22;38158;53.338;6.514;2022-09-01T03:35:43;14.50;99.90
52181;DHT22;38158;53.338;6.514;2022-09-01T03:38:10;14.40;99.90
52181;DHT22;38158;53.338;6.514;2022-09-01T03:40:38;14.40;99.90
52181;DHT22;38158;53.338;6.514;2022-09-01T03:43:06;14.40;99.90
52181;DHT22;38158;53.338;6.514;2022-09-01T03:45:35;14.30;99.90
52181;DHT22;38158;53.338;6.514;2022-09-01T03:48:06;14.30;99.90
52181;DHT22;38158;53.338;6.514;2022-09-01T03:50:38;14.30;99.90
52181;DHT22;38158;53.338;6.514;2022-09-01T03:53:06;14.40;99.90
52181;DHT22;38158;53.338;6.514;2022-09-01T03:55:34;14.30;99.90
52181;DHT22;38158;53.338;6.514;2022-09-01T03:58:03;14.30;99.90
52181;DHT22;38158;53.338;6.514;2022-09-01T04:00:41;14.30;99.90
52181;DHT22;38158;53.338;6.514;2022-09-01T04:03:09;14.30;99.90
52181;DHT22;38158;53.338;6.514;2022-09-01T04:05:37;14.20;99.90
52181;DHT22;38158;53.338;6.514;2022-09-01T04:08:06;14.20;99.90
52181;DHT22;38158;53.338;6.514;2022-09-01T04:10:37;14.20;99.90
52181;DHT22;38158;53.338;6.514;2022-09-01T04:13:06;14.20;99.90
52181;DHT22;38158;53.338;6.514;2022-09-01T04:15:36;14.10;99.90
52181;DHT22;38158;53.338;6.514;2022-09-01T04:18:03;14.10;99.90
52181;DHT22;38158;53.338;6.514;2022-09-01T04:20:41;14.10;99.90
52181;DHT22;38158;53.338;6.514;2022-09-01T04:23:19;14.10;99.90
52181;DHT22;38158;53.338;6.514;2022-09-01T04:25:49;14.10;99.90
52181;DHT22;38158;53.338;6.514;2022-09-01T04:28:19;14.00;99.90
52181;DHT22;38158;53.338;6.514;2022-09-01T04:30:56;14.10;99.90
52181;DHT22;38158;53.338;6.514;2022-09-01T04:33:27;14.00;99.90
52181;DHT22;38158;53.338;6.514;2022-09-01T04:35:59;14.00;99.90
52181;DHT22;38158;53.338;6.514;2022-09-01T04:38:25;14.00;99.90
52181;DHT22;38158;53.338;6.514;2022-09-01T04:40:54;14.00;99.90
52181;DHT22;38158;53.338;6.514;2022-09-01T04:43:22;13.90;99.90
52181;DHT22;38158;53.338;6.514;2022-09-01T04:45:49;13.90;99.90
52181;DHT22;38158;53.338;6.514;2022-09-01T04:48:18;13.90;99.90
52181;DHT22;38158;53.338;6.514;2022-09-01T04:50:47;13.90;99.90
52181;DHT22;38158;53.338;6.514;2022-09-01T04:53:14;13.80;99.90
52181;DHT22;38158;53.338;6.514;2022-09-01T04:55:41;13.80;99.90
52181;DHT22;38158;53.338;6.514;2022-09-01T04:58:09;13.80;99.90
52181;DHT22;38158;53.338;6.514;2022-09-01T05:00:39;13.80;99.90
52181;DHT22;38158;53.338;6.514;2022-09-01T05:03:05;13.80;99.90
52181;DHT22;38158;53.338;6.514;2022-09-01T05:05:44;13.80;99.90
52181;DHT22;38158;53.338;6.514;2022-09-01T05:08:12;13.90;99.90
52181;DHT22;38158;53.338;6.514;2022-09-01T05:10:44;13.90;99.90
52181;DHT22;38158;53.338;6.514;2022-09-01T05:13:13;13.90;99.90
52181;DHT22;38158;53.338;6.514;2022-09-01T05:15:43;13.90;99.90
52181;DHT22;38158;53.338;6.514;2022-09-01T05:18:18;13.90;99.90
52181;DHT22;38158;53.338;6.514;2022-09-01T05:20:50;13.90;99.90
52181;DHT22;38158;53.338;6.514;2022-09-01T05:23:16;13.90;99.90
52181;DHT22;38158;53.338;6.514;2022-09-01T05:25:48;14.00;99.90
52181;DHT22;38158;53.338;6.514;2022-09-01T05:28:17;14.00;99.90
52181;DHT22;38158;53.338;6.514;2022-09-01T05:30:46;14.00;99.90
52181;DHT22;38158;53.338;6.514;2022-09-01T05:33:14;14.00;99.90
52181;DHT22;38158;53.338;6.514;2022-09-01T05:35:55;14.00;99.90
52181;DHT22;38158;53.338;6.514;2022-09-01T05:38:21;14.10;99.90
52181;DHT22;38158;53.338;6.514;2022-09-01T05:40:58;14.10;99.90
52181;DHT22;38158;53.338;6.514;2022-09-01T05:43:26;14.10;99.90
52181;DHT22;38158;53.338;6.514;2022-09-01T05:45:58;14.10;99.90
52181;DHT22;38158;53.338;6.514;2022-09-01T05:48:26;14.20;99.90
52181;DHT22;38158;53.338;6.514;2022-09-01T05:50:56;14.20;99.90
52181;DHT22;38158;53.338;6.514;2022-09-01T05:53:22;14.20;99.90
52181;DHT22;38158;53.338;6.514;2022-09-01T05:55:50;14.30;99.90
52181;DHT22;38158;53.338;6.514;2022-09-01T05:58:18;14.40;99.90
52181;DHT22;38158;53.338;6.514;2022-09-01T06:00:45;14.40;99.90
52181;DHT22;38158;53.338;6.514;2022-09-01T06:03:14;14.50;99.90
52181;DHT22;38158;53.338;6.514;2022-09-01T06:05:41;14.60;99.90
52181;DHT22;38158;53.338;6.514;2022-09-01T06:08:08;14.60;99.90
52181;DHT22;38158;53.338;6.514;2022-09-01T06:10:36;14.60;99.90
52181;DHT22;38158;53.338;6.514;2022-09-01T06:13:06;14.70;99.90
52181;DHT22;38158;53.338;6.514;2022-09-01T06:15:32;14.70;99.90
52181;DHT22;38158;53.338;6.514;2022-09-01T06:17:58;14.80;99.90
52181;DHT22;38158;53.338;6.514;2022-09-01T06:20:25;14.90;99.90
52181;DHT22;38158;53.338;6.514;2022-09-01T06:22:52;14.90;99.90
52181;DHT22;38158;53.338;6.514;2022-09-01T06:25:19;15.00;99.90
52181;DHT22;38158;53.338;6.514;2022-09-01T06:27:45;15.10;99.90
52181;DHT22;38158;53.338;6.514;2022-09-01T06:30:14;15.20;99.90
52181;DHT22;38158;53.338;6.514;2022-09-01T06:32:43;15.20;99.90
52181;DHT22;38158;53.338;6.514;2022-09-01T06:35:13;15.30;99.90
52181;DHT22;38158;53.338;6.514;2022-09-01T06:37:41;15.30;99.90
52181;DHT22;38158;53.338;6.514;2022-09-01T06:40:12;15.40;99.90
52181;DHT22;38158;53.338;6.514;2022-09-01T06:42:47;15.60;99.90
52181;DHT22;38158;53.338;6.514;2022-09-01T06:45:14;15.70;99.90
52181;DHT22;38158;53.338;6.514;2022-09-01T06:47:43;15.70;99.90
52181;DHT22;38158;53.338;6.514;2022-09-01T06:50:11;15.80;99.90
52181;DHT22;38158;53.338;6.514;2022-09-01T06:52:40;15.80;99.90
52181;DHT22;38158;53.338;6.514;2022-09-01T06:55:08;15.90;99.90
52181;DHT22;38158;53.338;6.514;2022-09-01T06:57:34;16.00;99.90
52181;DHT22;38158;53.338;6.514;2022-09-01T07:00:00;16.10;99.90
52181;DHT22;38158;53.338;6.514;2022-09-01T07:02:31;16.10;99.90
52181;DHT22;38158;53.338;6.514;2022-09-01T07:04:58;16.20;99.90
52181;DHT22;38158;53.338;6.514;2022-09-01T07:07:23;16.30;99.90
52181;DHT22;38158;53.338;6.514;2022-09-01T07:09:59;16.40;99.90
52181;DHT22;38158;53.338;6.514;2022-09-01T07:12:24;16.40;99.90
52181;DHT22;38158;53.338;6.514;2022-09-01T07:14:50;16.60;99.90
52181;DHT22;38158;53.338;6.514;2022-09-01T07:17:17;16.70;99.90
52181;DHT22;38158;53.338;6.514;2022-09-01T07:19:43;16.80;99.90
52181;DHT22;38158;53.338;6.514;2022-09-01T07:22:09;16.90;99.90
52181;DHT22;38158;53.338;6.514;2022-09-01T07:24:35;17.00;99.90
52181;DHT22;38158;53.338;6.514;2022-09-01T07:27:01;17.10;99.90
52181;DHT22;38158;53.338;6.514;2022-09-01T07:29:26;17.30;99.90
52181;DHT22;38158;53.338;6.514;2022-09-01T07:31:53;17.30;99.90
52181;DHT22;38158;53.338;6.514;2022-09-01T07:34:20;17.50;99.90
52181;DHT22;38158;53.338;6.514;2022-09-01T07:36:46;17.50;99.90
52181;DHT22;38158;53.338;6.514;2022-09-01T07:39:12;17.50;99.90
52181;DHT22;38158;53.338;6.514;2022-09-01T07:41:39;17.50;99.90
52181;DHT22;38158;53.338;6.514;2022-09-01T07:44:07;17.40;99.90
52181;DHT22;38158;53.338;6.514;2022-09-01T07:46:38;17.30;99.90
52181;DHT22;38158;53.338;6.514;2022-09-01T07:49:04;17.10;99.90
52181;DHT22;38158;53.338;6.514;2022-09-01T07:51:30;17.00;99.90
52181;DHT22;38158;53.338;6.514;2022-09-01T07:53:58;16.90;99.90
52181;DHT22;38158;53.338;6.514;2022-09-01T07:56:27;16.90;99.90
52181;DHT22;38158;53.338;6.514;2022-09-01T07:58:55;16.80;99.90
52181;DHT22;38158;53.338;6.514;2022-09-01T08:01:25;16.80;99.90
52181;DHT22;38158;53.338;6.514;2022-09-01T08:03:56;16.90;99.90
52181;DHT22;38158;53.338;6.514;2022-09-01T08:06:24;17.00;99.90
52181;DHT22;38158;53.338;6.514;2022-09-01T08:08:52;17.10;99.90
52181;DHT22;38158;53.338;6.514;2022-09-01T08:11:24;17.20;99.90
52181;DHT22;38158;53.338;6.514;2022-09-01T08:13:52;17.50;99.90
52181;DHT22;38158;53.338;6.514;2022-09-01T08:16:18;17.70;99.90
52181;DHT22;38158;53.338;6.514;2022-09-01T08:18:45;17.90;99.90
52181;DHT22;38158;53.338;6.514;2022-09-01T08:21:13;18.10;99.90
52181;DHT22;38158;53.338;6.514;2022-09-01T08:23:40;18.20;99.90
52181;DHT22;38158;53.338;6.514;2022-09-01T08:26:11;18.20;99.90
52181;DHT22;38158;53.338;6.514;2022-09-01T08:28:37;18.20;99.90
52181;DHT22;38158;53.338;6.514;2022-09-01T08:31:09;18.20;99.90
52181;DHT22;38158;53.338;6.514;2022-09-01T08:33:36;18.20;99.90
52181;DHT22;38158;53.338;6.514;2022-09-01T08:36:02;18.20;99.90
52181;DHT22;38158;53.338;6.514;2022-09-01T08:38:28;18.30;99.90
52181;DHT22;38158;53.338;6.514;2022-09-01T08:40:56;18.50;99.90
52181;DHT22;38158;53.338;6.514;2022-09-01T08:46:45;18.90;99.90
52181;DHT22;38158;53.338;6.514;2022-09-01T08:49:17;19.00;99.90
52181;DHT22;38158;53.338;6.514;2022-09-01T08:54:44;19.30;99.90
52181;DHT22;38158;53.338;6.514;2022-09-01T08:57:25;19.50;99.90
52181;DHT22;38158;53.338;6.514;2022-09-01T08:59:53;19.70;99.90
52181;DHT22;38158;53.338;6.514;2022-09-01T09:02:55;19.60;99.90
52181;DHT22;38158;53.338;6.514;2022-09-01T09:05:34;19.50;99.90
52181;DHT22;38158;53.338;6.514;2022-09-01T09:11:28;19.60;99.80
52181;DHT22;38158;53.338;6.514;2022-09-01T09:16:40;19.70;99.00
52181;DHT22;38158;53.338;6.514;2022-09-01T09:19:38;19.80;98.00
52181;DHT22;38158;53.338;6.514;2022-09-01T09:22:07;20.00;97.10
52181;DHT22;38158;53.338;6.514;2022-09-01T09:27:33;20.20;96.50
52181;DHT22;38158;53.338;6.514;2022-09-01T09:32:52;20.40;96.30
52181;DHT22;38158;53.338;6.514;2022-09-01T09:35:26;20.50;93.50
52181;DHT22;38158;53.338;6.514;2022-09-01T09:37:55;20.60;95.60
52181;DHT22;38158;53.338;6.514;2022-09-01T09:40:25;20.60;94.90
52181;DHT22;38158;53.338;6.514;2022-09-01T09:45:37;20.90;92.50
52181;DHT22;38158;53.338;6.514;2022-09-01T09:48:09;20.90;90.70
52181;DHT22;38158;53.338;6.514;2022-09-01T09:50:50;21.00;92.20
52181;DHT22;38158;53.338;6.514;2022-09-01T09:53:26;21.00;93.20
52181;DHT22;38158;53.338;6.514;2022-09-01T09:58:38;21.20;91.20
52181;DHT22;38158;53.338;6.514;2022-09-01T10:01:11;21.30;90.10
52181;DHT22;38158;53.338;6.514;2022-09-01T10:06:10;21.40;90.90
52181;DHT22;38158;53.338;6.514;2022-09-01T10:08:44;21.40;89.90
52181;DHT22;38158;53.338;6.514;2022-09-01T10:11:23;21.40;85.40
52181;DHT22;38158;53.338;6.514;2022-09-01T10:13:51;21.30;89.40
52181;DHT22;38158;53.338;6.514;2022-09-01T10:16:29;21.40;90.30
52181;DHT22;38158;53.338;6.514;2022-09-01T10:18:58;21.60;83.70
52181;DHT22;38158;53.338;6.514;2022-09-01T10:21:34;21.50;86.80
52181;DHT22;38158;53.338;6.514;2022-09-01T10:24:08;21.60;83.00
52181;DHT22;38158;53.338;6.514;2022-09-01T10:26:37;21.70;84.90
52181;DHT22;38158;53.338;6.514;2022-09-01T10:29:12;21.80;85.50
52181;DHT22;38158;53.338;6.514;2022-09-01T10:31:40;21.90;81.50
52181;DHT22;38158;53.338;6.514;2022-09-01T10:34:09;22.00;83.20
52181;DHT22;38158;53.338;6.514;2022-09-01T10:36:41;22.00;81.70
52181;DHT22;38158;53.338;6.514;2022-09-01T10:39:12;22.10;79.10
52181;DHT22;38158;53.338;6.514;2022-09-01T10:44:31;22.10;78.90
52181;DHT22;38158;53.338;6.514;2022-09-01T10:47:26;22.20;77.50
52181;DHT22;38158;53.338;6.514;2022-09-01T10:58:12;22.30;70.40
52181;DHT22;38158;53.338;6.514;2022-09-01T11:00:45;22.30;70.00
52181;DHT22;38158;53.338;6.514;2022-09-01T11:13:58;22.70;62.30
52181;DHT22;38158;53.338;6.514;2022-09-01T11:18:50;23.00;61.60
52181;DHT22;38158;53.338;6.514;2022-09-01T11:23:49;23.00;55.70
52181;DHT22;38158;53.338;6.514;2022-09-01T11:29:00;22.70;53.40
52181;DHT22;38158;53.338;6.514;2022-09-01T11:31:32;22.70;57.80
52181;DHT22;38158;53.338;6.514;2022-09-01T11:41:58;22.50;58.30
52181;DHT22;38158;53.338;6.514;2022-09-01T11:47:24;22.60;56.20
52181;DHT22;38158;53.338;6.514;2022-09-01T11:50:07;22.50;58.20
52181;DHT22;38158;53.338;6.514;2022-09-01T11:52:35;22.40;58.10
52181;DHT22;38158;53.338;6.514;2022-09-01T11:55:04;22.50;60.00
52181;DHT22;38158;53.338;6.514;2022-09-01T11:59:58;22.70;58.60
52181;DHT22;38158;53.338;6.514;2022-09-01T12:02:28;22.70;58.30
52181;DHT22;38158;53.338;6.514;2022-09-01T12:04:56;22.90;57.80
52181;DHT22;38158;53.338;6.514;2022-09-01T12:07:44;22.90;57.90
52181;DHT22;38158;53.338;6.514;2022-09-01T12:10:43;22.90;55.50
52181;DHT22;38158;53.338;6.514;2022-09-01T12:13:21;22.90;55.50
52181;DHT22;38158;53.338;6.514;2022-09-01T12:15:56;22.80;57.60
52181;DHT22;38158;53.338;6.514;2022-09-01T12:18:24;22.80;57.80
52181;DHT22;38158;53.338;6.514;2022-09-01T12:20:54;22.80;58.30
52181;DHT22;38158;53.338;6.514;2022-09-01T12:25:58;22.70;58.20
52181;DHT22;38158;53.338;6.514;2022-09-01T12:28:29;22.90;59.10
52181;DHT22;38158;53.338;6.514;2022-09-01T12:31:07;23.00;59.40
52181;DHT22;38158;53.338;6.514;2022-09-01T12:33:37;23.00;58.10
52181;DHT22;38158;53.338;6.514;2022-09-01T12:36:26;22.90;58.80
52181;DHT22;38158;53.338;6.514;2022-09-01T12:39:03;22.70;58.80
52181;DHT22;38158;53.338;6.514;2022-09-01T12:41:46;22.50;59.50
52181;DHT22;38158;53.338;6.514;2022-09-01T12:50:30;22.10;59.70
52181;DHT22;38158;53.338;6.514;2022-09-01T12:52:57;22.00;60.80
52181;DHT22;38158;53.338;6.514;2022-09-01T12:55:29;22.10;60.30
52181;DHT22;38158;53.338;6.514;2022-09-01T12:57:58;22.20;59.40
52181;DHT22;38158;53.338;6.514;2022-09-01T13:00:26;22.20;59.00
52181;DHT22;38158;53.338;6.514;2022-09-01T13:07:57;22.20;57.80
52181;DHT22;38158;53.338;6.514;2022-09-01T13:10:26;22.30;58.60
52181;DHT22;38158;53.338;6.514;2022-09-01T13:12:53;22.60;58.30
52181;DHT22;38158;53.338;6.514;2022-09-01T13:15:20;22.80;58.00
52181;DHT22;38158;53.338;6.514;2022-09-01T13:17:46;23.00;56.80
52181;DHT22;38158;53.338;6.514;2022-09-01T13:20:12;23.20;56.20
52181;DHT22;38158;53.338;6.514;2022-09-01T13:22:39;23.20;56.00
52181;DHT22;38158;53.338;6.514;2022-09-01T13:25:07;23.00;54.90
52181;DHT22;38158;53.338;6.514;2022-09-01T13:27:35;22.90;55.40
52181;DHT22;38158;53.338;6.514;2022-09-01T13:30:03;23.00;55.80
52181;DHT22;38158;53.338;6.514;2022-09-01T13:32:28;23.00;54.30
52181;DHT22;38158;53.338;6.514;2022-09-01T13:34:54;23.10;55.50
52181;DHT22;38158;53.338;6.514;2022-09-01T13:37:21;23.20;55.20
52181;DHT22;38158;53.338;6.514;2022-09-01T13:39:47;23.30;54.30
52181;DHT22;38158;53.338;6.514;2022-09-01T13:42:13;23.30;54.60
52181;DHT22;38158;53.338;6.514;2022-09-01T13:44:39;23.40;54.30
52181;DHT22;38158;53.338;6.514;2022-09-01T13:47:05;23.40;54.60
52181;DHT22;38158;53.338;6.514;2022-09-01T13:49:30;23.40;54.10
52181;DHT22;38158;53.338;6.514;2022-09-01T13:51:56;23.50;54.40
52181;DHT22;38158;53.338;6.514;2022-09-01T13:54:22;23.50;55.00
52181;DHT22;38158;53.338;6.514;2022-09-01T13:56:47;23.60;54.40
52181;DHT22;38158;53.338;6.514;2022-09-01T13:59:13;23.60;54.10
52181;DHT22;38158;53.338;6.514;2022-09-01T14:01:39;23.60;53.60
52181;DHT22;38158;53.338;6.514;2022-09-01T14:04:06;23.60;52.80
52181;DHT22;38158;53.338;6.514;2022-09-01T14:06:32;23.60;53.30
52181;DHT22;38158;53.338;6.514;2022-09-01T14:08:58;23.60;53.40
52181;DHT22;38158;53.338;6.514;2022-09-01T14:11:24;23.40;53.30
52181;DHT22;38158;53.338;6.514;2022-09-01T14:13:51;23.30;53.60
52181;DHT22;38158;53.338;6.514;2022-09-01T14:16:17;23.30;54.10
52181;DHT22;38158;53.338;6.514;2022-09-01T14:18:43;23.40;54.80
52181;DHT22;38158;53.338;6.514;2022-09-01T14:21:13;23.50;53.80
52181;DHT22;38158;53.338;6.514;2022-09-01T14:23:40;23.50;53.20
52181;DHT22;38158;53.338;6.514;2022-09-01T14:26:14;23.60;54.40
52181;DHT22;38158;53.338;6.514;2022-09-01T14:28:41;23.70;53.30
52181;DHT22;38158;53.338;6.514;2022-09-01T14:31:17;23.60;54.70
52181;DHT22;38158;53.338;6.514;2022-09-01T14:33:44;23.50;54.40
52181;DHT22;38158;53.338;6.514;2022-09-01T14:36:17;23.50;55.10
52181;DHT22;38158;53.338;6.514;2022-09-01T14:38:43;23.60;54.70
52181;DHT22;38158;53.338;6.514;2022-09-01T14:41:12;23.60;54.00
52181;DHT22;38158;53.338;6.514;2022-09-01T14:43:39;23.60;55.70
52181;DHT22;38158;53.338;6.514;2022-09-01T14:46:08;23.60;57.50
52181;DHT22;38158;53.338;6.514;2022-09-01T14:48:36;23.60;57.20
52181;DHT22;38158;53.338;6.514;2022-09-01T14:51:02;23.70;55.20
52181;DHT22;38158;53.338;6.514;2022-09-01T14:53:29;23.70;54.50
52181;DHT22;38158;53.338;6.514;2022-09-01T14:55:59;23.70;55.70
52181;DHT22;38158;53.338;6.514;2022-09-01T14:58:27;23.70;56.80
52181;DHT22;38158;53.338;6.514;2022-09-01T15:00:53;23.80;56.00
52181;DHT22;38158;53.338;6.514;2022-09-01T15:03:24;23.80;54.40
52181;DHT22;38158;53.338;6.514;2022-09-01T15:05:51;23.80;53.50
52181;DHT22;38158;53.338;6.514;2022-09-01T15:08:17;23.70;54.80
52181;DHT22;38158;53.338;6.514;2022-09-01T15:10:43;23.50;56.90
52181;DHT22;38158;53.338;6.514;2022-09-01T15:13:09;23.30;59.90
52181;DHT22;38158;53.338;6.514;2022-09-01T15:15:36;23.20;61.50
52181;DHT22;38158;53.338;6.514;2022-09-01T15:18:02;23.10;63.20
52181;DHT22;38158;53.338;6.514;2022-09-01T15:20:28;23.00;64.40
52181;DHT22;38158;53.338;6.514;2022-09-01T15:23:12;23.00;65.60
52181;DHT22;38158;53.338;6.514;2022-09-01T15:25:38;23.00;66.00
52181;DHT22;38158;53.338;6.514;2022-09-01T15:28:04;23.10;66.30
52181;DHT22;38158;53.338;6.514;2022-09-01T15:30:31;23.10;65.90
52181;DHT22;38158;53.338;6.514;2022-09-01T15:32:57;23.00;66.50
52181;DHT22;38158;53.338;6.514;2022-09-01T15:35:23;22.80;67.00
52181;DHT22;38158;53.338;6.514;2022-09-01T15:37:50;22.70;68.20
52181;DHT22;38158;53.338;6.514;2022-09-01T15:40:16;22.60;69.00
52181;DHT22;38158;53.338;6.514;2022-09-01T15:42:43;22.40;70.80
52181;DHT22;38158;53.338;6.514;2022-09-01T15:45:15;22.20;70.70
52181;DHT22;38158;53.338;6.514;2022-09-01T15:47:41;22.20;72.50
52181;DHT22;38158;53.338;6.514;2022-09-01T15:50:10;22.20;72.50
52181;DHT22;38158;53.338;6.514;2022-09-01T15:53:06;22.20;73.70
52181;DHT22;38158;53.338;6.514;2022-09-01T15:55:45;22.30;73.30
52181;DHT22;38158;53.338;6.514;2022-09-01T15:58:15;22.30;70.40
52181;DHT22;38158;53.338;6.514;2022-09-01T16:00:42;22.30;72.40
52181;DHT22;38158;53.338;6.514;2022-09-01T16:03:08;22.30;72.80
52181;DHT22;38158;53.338;6.514;2022-09-01T16:05:36;22.30;73.60
52181;DHT22;38158;53.338;6.514;2022-09-01T16:08:03;22.30;74.10
52181;DHT22;38158;53.338;6.514;2022-09-01T16:10:34;22.40;71.20
52181;DHT22;38158;53.338;6.514;2022-09-01T16:13:01;22.40;71.90
52181;DHT22;38158;53.338;6.514;2022-09-01T16:15:27;22.30;73.60
52181;DHT22;38158;53.338;6.514;2022-09-01T16:23:32;22.10;77.30
52181;DHT22;38158;53.338;6.514;2022-09-01T16:26:00;22.10;74.50
52181;DHT22;38158;53.338;6.514;2022-09-01T16:28:33;22.10;71.60
52181;DHT22;38158;53.338;6.514;2022-09-01T16:31:09;22.20;66.70
52181;DHT22;38158;53.338;6.514;2022-09-01T16:33:36;22.20;65.40
52181;DHT22;38158;53.338;6.514;2022-09-01T16:39:01;22.40;63.30
52181;DHT22;38158;53.338;6.514;2022-09-01T16:44:49;22.70;59.90
52181;DHT22;38158;53.338;6.514;2022-09-01T16:47:48;22.80;56.90
52181;DHT22;38158;53.338;6.514;2022-09-01T16:56:07;22.70;59.00
52181;DHT22;38158;53.338;6.514;2022-09-01T16:58:45;22.40;58.80
52181;DHT22;38158;53.338;6.514;2022-09-01T17:06:28;21.80;61.20
52181;DHT22;38158;53.338;6.514;2022-09-01T17:09:13;21.70;61.70
52181;DHT22;38158;53.338;6.514;2022-09-01T17:11:56;21.60;61.00
52181;DHT22;38158;53.338;6.514;2022-09-01T17:14:35;21.50;62.10
52181;DHT22;38158;53.338;6.514;2022-09-01T17:17:05;21.50;63.20
52181;DHT22;38158;53.338;6.514;2022-09-01T17:19:32;21.40;64.60
52181;DHT22;38158;53.338;6.514;2022-09-01T17:27:32;21.00;70.20
52181;DHT22;38158;53.338;6.514;2022-09-01T17:30:00;20.80;76.00
52181;DHT22;38158;53.338;6.514;2022-09-01T17:32:39;20.70;78.00
52181;DHT22;38158;53.338;6.514;2022-09-01T17:35:28;20.60;82.90
52181;DHT22;38158;53.338;6.514;2022-09-01T17:38:08;20.40;90.20